sensor_id;sensor_type;location;lat;lon;timestamp;pressure;altitude;pressure_sealevel;temperature;humidity
50166;BME280;36071;48.140;11.516;2022-07-06T00:01:52;96000.0;;;20.2;47.5
50166;BME280;36071;48.140;11.516;2022-07-06T00:06:52;96000.0;;;20.3;47.7
50166;BME280;36071;48.140;11.516;2022-07-06T00:11:52;96010.0;;;20.2;48.1
50166;BME280;36071;48.140;11.516;2022-07-06T00:16:52;96000.0;;;20.2;48.5
50166;BME280;36071;48.140;11.516;2022-07-06T00:26:52;96000.0;;;20.1;48.8
50166;BME280;36071;48.140;11.516;2022-07-06T00:31:52;96000.0;;;20.0;49.8
50166;BME280;36071;48.140;11.516;2022-07-06T00:36:52;95990.0;;;19.9;49.7
50166;BME280;36071;48.140;11.516;2022-07-06T00:41:52;95990.0;;;19.8;49.9
50166;BME280;36071;48.140;11.516;2022-07-06T00:46:52;96010.0;;;19.8;50.2
50166;BME280;36071;48.140;11.516;2022-07-06T00:51:52;96000.0;;;19.7;50.1
50166;BME280;36071;48.140;11.516;2022-07-06T00:56:52;95990.0;;;19.6;50.2
50166;BME280;36071;48.140;11.516;2022-07-06T01:01:52;95990.0;;;19.6;50.7
50166;BME280;36071;48.140;11.516;2022-07-06T01:06:52;95980.0;;;19.6;50.9
50166;BME280;36071;48.140;11.516;2022-07-06T01:11:52;95970.0;;;19.5;51.4
50166;BME280;36071;48.140;11.516;2022-07-06T01:16:52;95970.0;;;19.7;51.0
50166;BME280;36071;48.140;11.516;2022-07-06T01:21:52;95960.0;;;19.5;51.8
50166;BME280;36071;48.140;11.516;2022-07-06T01:26:52;95960.0;;;19.4;52.2
50166;BME280;36071;48.140;11.516;2022-07-06T01:32:00;95960.0;;;19.5;52.2
50166;BME280;36071;48.140;11.516;2022-07-06T01:36:53;95960.0;;;19.4;52.2
50166;BME280;36071;48.140;11.516;2022-07-06T01:41:52;95950.0;;;19.5;52.0
50166;BME280;36071;48.140;11.516;2022-07-06T01:46:52;95960.0;;;19.4;52.3
50166;BME280;36071;48.140;11.516;2022-07-06T01:51:52;95970.0;;;19.4;52.2
50166;BME280;36071;48.140;11.516;2022-07-06T01:56:52;95970.0;;;19.3;51.8
50166;BME280;36071;48.140;11.516;2022-07-06T02:01:52;95970.0;;;19.1;52.4
50166;BME280;36071;48.140;11.516;2022-07-06T02:06:53;95970.0;;;18.9;53.3
50166;BME280;36071;48.140;11.516;2022-07-06T02:11:52;95970.0;;;18.9;53.5
50166;BME280;36071;48.140;11.516;2022-07-06T02:16:52;95970.0;;;18.8;53.3
50166;BME280;36071;48.140;11.516;2022-07-06T02:21:52;95980.0;;;18.7;53.9
50166;BME280;36071;48.140;11.516;2022-07-06T02:26:52;95980.0;;;18.7;53.4
50166;BME280;36071;48.140;11.516;2022-07-06T02:31:52;95990.0;;;18.7;53.8
50166;BME280;36071;48.140;11.516;2022-07-06T02:36:52;95980.0;;;18.5;54.2
50166;BME280;36071;48.140;11.516;2022-07-06T02:41:52;95990.0;;;18.5;54.4
50166;BME280;36071;48.140;11.516;2022-07-06T02:46:52;95980.0;;;18.4;54.4
50166;BME280;36071;48.140;11.516;2022-07-06T02:51:52;95990.0;;;18.4;54.8
50166;BME280;36071;48.140;11.516;2022-07-06T02:56:52;95970.0;;;18.4;55.1
50166;BME280;36071;48.140;11.516;2022-07-06T03:01:52;95990.0;;;18.5;55.7
50166;BME280;36071;48.140;11.516;2022-07-06T03:06:52;95980.0;;;18.4;56.5
50166;BME280;36071;48.140;11.516;2022-07-06T03:11:52;95990.0;;;18.2;57.4
50166;BME280;36071;48.140;11.516;2022-07-06T03:16:52;96000.0;;;18.0;58.5
50166;BME280;36071;48.140;11.516;2022-07-06T03:21:52;96010.0;;;18.1;58.3
50166;BME280;36071;48.140;11.516;2022-07-06T03:26:52;96000.0;;;18.0;58.9
50166;BME280;36071;48.140;11.516;2022-07-06T03:31:52;96000.0;;;17.8;59.5
50166;BME280;36071;48.140;11.516;2022-07-06T03:36:52;96000.0;;;17.8;59.2
50166;BME280;36071;48.140;11.516;2022-07-06T03:41:52;95990.0;;;17.9;59.4
50166;BME280;36071;48.140;11.516;2022-07-06T03:46:52;96000.0;;;17.9;59.4
50166;BME280;36071;48.140;11.516;2022-07-06T03:51:52;96000.0;;;17.8;59.7
50166;BME280;36071;48.140;11.516;2022-07-06T03:56:52;95990.0;;;17.6;60.5
50166;BME280;36071;48.140;11.516;2022-07-06T04:01:52;96000.0;;;17.7;60.1
50166;BME280;36071;48.140;11.516;2022-07-06T04:06:53;96000.0;;;17.7;60.4
50166;BME280;36071;48.140;11.516;2022-07-06T04:11:52;96000.0;;;17.6;60.7
50166;BME280;36071;48.140;11.516;2022-07-06T04:16:52;96010.0;;;17.6;61.0
50166;BME280;36071;48.140;11.516;2022-07-06T04:21:52;96020.0;;;17.6;61.4
50166;BME280;36071;48.140;11.516;2022-07-06T04:26:52;96020.0;;;17.7;61.3
50166;BME280;36071;48.140;11.516;2022-07-06T04:31:52;96030.0;;;17.7;61.7
50166;BME280;36071;48.140;11.516;2022-07-06T04:36:52;96020.0;;;17.7;61.9
50166;BME280;36071;48.140;11.516;2022-07-06T04:41:52;96030.0;;;17.8;61.9
50166;BME280;36071;48.140;11.516;2022-07-06T04:46:52;96020.0;;;17.9;62.2
50166;BME280;36071;48.140;11.516;2022-07-06T04:51:53;96030.0;;;17.9;62.3
50166;BME280;36071;48.140;11.516;2022-07-06T04:56:52;96030.0;;;17.9;62.5
50166;BME280;36071;48.140;11.516;2022-07-06T05:01:53;96020.0;;;17.9;62.6
50166;BME280;36071;48.140;11.516;2022-07-06T05:06:52;96020.0;;;17.8;62.7
50166;BME280;36071;48.140;11.516;2022-07-06T05:11:52;96030.0;;;18.0;61.5
50166;BME280;36071;48.140;11.516;2022-07-06T05:16:52;96030.0;;;18.1;60.9
50166;BME280;36071;48.140;11.516;2022-07-06T05:21:52;96030.0;;;18.2;60.0
50166;BME280;36071;48.140;11.516;2022-07-06T05:26:53;96030.0;;;18.3;59.2
50166;BME280;36071;48.140;11.516;2022-07-06T05:31:52;96040.0;;;18.5;58.6
50166;BME280;36071;48.140;11.516;2022-07-06T05:36:53;96030.0;;;18.4;58.2
50166;BME280;36071;48.140;11.516;2022-07-06T05:41:52;96030.0;;;18.5;58.4
50166;BME280;36071;48.140;11.516;2022-07-06T05:46:52;96050.0;;;18.5;58.4
50166;BME280;36071;48.140;11.516;2022-07-06T05:51:52;96050.0;;;18.6;58.5
50166;BME280;36071;48.140;11.516;2022-07-06T05:56:52;96050.0;;;18.7;57.5
50166;BME280;36071;48.140;11.516;2022-07-06T06:01:52;96050.0;;;18.8;56.7
50166;BME280;36071;48.140;11.516;2022-07-06T06:06:52;96040.0;;;18.7;55.9
50166;BME280;36071;48.140;11.516;2022-07-06T06:11:52;96050.0;;;18.7;56.3
50166;BME280;36071;48.140;11.516;2022-07-06T06:16:54;96060.0;;;18.8;56.8
50166;BME280;36071;48.140;11.516;2022-07-06T06:21:52;96060.0;;;18.8;56.4
50166;BME280;36071;48.140;11.516;2022-07-06T06:26:52;96070.0;;;18.8;55.3
50166;BME280;36071;48.140;11.516;2022-07-06T06:31:52;96070.0;;;18.8;54.5
50166;BME280;36071;48.140;11.516;2022-07-06T06:36:53;96070.0;;;18.9;54.5
50166;BME280;36071;48.140;11.516;2022-07-06T06:41:52;96060.0;;;18.9;54.7
50166;BME280;36071;48.140;11.516;2022-07-06T06:46:52;96070.0;;;18.9;54.7
50166;BME280;36071;48.140;11.516;2022-07-06T06:51:52;96060.0;;;18.9;54.5
50166;BME280;36071;48.140;11.516;2022-07-06T06:56:52;96070.0;;;19.1;53.8
50166;BME280;36071;48.140;11.516;2022-07-06T07:01:53;96060.0;;;19.1;53.6
50166;BME280;36071;48.140;11.516;2022-07-06T07:06:52;96070.0;;;19.1;52.6
50166;BME280;36071;48.140;11.516;2022-07-06T07:11:52;96060.0;;;19.2;52.6
50166;BME280;36071;48.140;11.516;2022-07-06T07:16:52;96070.0;;;19.3;52.8
50166;BME280;36071;48.140;11.516;2022-07-06T07:21:52;96060.0;;;19.4;52.2
50166;BME280;36071;48.140;11.516;2022-07-06T07:26:52;96060.0;;;19.6;51.8
50166;BME280;36071;48.140;11.516;2022-07-06T07:31:52;96060.0;;;19.7;49.7
50166;BME280;36071;48.140;11.516;2022-07-06T07:36:52;96060.0;;;19.8;48.9
50166;BME280;36071;48.140;11.516;2022-07-06T07:41:52;96060.0;;;19.9;47.2
50166;BME280;36071;48.140;11.516;2022-07-06T07:46:52;96060.0;;;19.9;47.7
50166;BME280;36071;48.140;11.516;2022-07-06T07:51:53;96060.0;;;20.0;47.5
50166;BME280;36071;48.140;11.516;2022-07-06T07:56:52;96060.0;;;20.1;48.0
50166;BME280;36071;48.140;11.516;2022-07-06T08:01:52;96060.0;;;20.2;48.4
50166;BME280;36071;48.140;11.516;2022-07-06T08:06:52;96060.0;;;20.3;47.8
50166;BME280;36071;48.140;11.516;2022-07-06T08:11:52;96060.0;;;20.4;47.3
50166;BME280;36071;48.140;11.516;2022-07-06T08:16:53;96060.0;;;20.5;47.2
50166;BME280;36071;48.140;11.516;2022-07-06T08:21:52;96060.0;;;20.6;47.9
50166;BME280;36071;48.140;11.516;2022-07-06T08:26:52;96060.0;;;20.9;47.4
50166;BME280;36071;48.140;11.516;2022-07-06T08:31:52;96070.0;;;21.0;46.9
50166;BME280;36071;48.140;11.516;2022-07-06T08:36:53;96070.0;;;21.4;46.6
50166;BME280;36071;48.140;11.516;2022-07-06T08:41:52;96060.0;;;21.7;46.6
50166;BME280;36071;48.140;11.516;2022-07-06T08:46:52;96060.0;;;22.1;44.6
50166;BME280;36071;48.140;11.516;2022-07-06T08:51:53;96070.0;;;22.5;44.4
50166;BME280;36071;48.140;11.516;2022-07-06T08:56:52;96070.0;;;22.8;42.8
50166;BME280;36071;48.140;11.516;2022-07-06T09:01:53;96080.0;;;23.3;42.6
50166;BME280;36071;48.140;11.516;2022-07-06T09:06:53;96080.0;;;23.6;42.8
50166;BME280;36071;48.140;11.516;2022-07-06T09:11:52;96070.0;;;24.1;43.4
50166;BME280;36071;48.140;11.516;2022-07-06T09:17:01;96080.0;;;24.4;41.5
50166;BME280;36071;48.140;11.516;2022-07-06T09:21:53;96080.0;;;24.2;40.5
50166;BME280;36071;48.140;11.516;2022-07-06T09:26:53;96080.0;;;24.1;39.6
50166;BME280;36071;48.140;11.516;2022-07-06T09:31:56;96080.0;;;24.2;39.3
50166;BME280;36071;48.140;11.516;2022-07-06T09:36:52;96080.0;;;24.5;39.5
50166;BME280;36071;48.140;11.516;2022-07-06T09:41:53;96090.0;;;24.9;38.5
50166;BME280;36071;48.140;11.516;2022-07-06T09:46:53;96090.0;;;25.3;37.2
50166;BME280;36071;48.140;11.516;2022-07-06T09:51:53;96090.0;;;24.9;37.2
50166;BME280;36071;48.140;11.516;2022-07-06T09:56:53;96090.0;;;25.5;37.3
50166;BME280;36071;48.140;11.516;2022-07-06T10:01:53;96090.0;;;25.2;37.0
50166;BME280;36071;48.140;11.516;2022-07-06T10:06:53;96090.0;;;25.4;37.3
50166;BME280;36071;48.140;11.516;2022-07-06T10:11:54;96090.0;;;25.4;37.4
50166;BME280;36071;48.140;11.516;2022-07-06T10:16:53;96080.0;;;25.5;37.3
50166;BME280;36071;48.140;11.516;2022-07-06T10:21:53;96080.0;;;25.8;35.3
50166;BME280;36071;48.140;11.516;2022-07-06T10:31:53;96070.0;;;26.3;38.0
50166;BME280;36071;48.140;11.516;2022-07-06T10:36:53;96070.0;;;26.8;33.1
50166;BME280;36071;48.140;11.516;2022-07-06T10:41:53;96070.0;;;26.8;34.4
50166;BME280;36071;48.140;11.516;2022-07-06T10:46:53;96070.0;;;26.9;33.2
50166;BME280;36071;48.140;11.516;2022-07-06T10:51:53;96070.0;;;27.2;30.7
50166;BME280;36071;48.140;11.516;2022-07-06T10:56:52;96070.0;;;27.2;32.6
50166;BME280;36071;48.140;11.516;2022-07-06T11:02:10;96060.0;;;27.2;32.5
50166;BME280;36071;48.140;11.516;2022-07-06T11:06:53;96070.0;;;27.6;32.4
50166;BME280;36071;48.140;11.516;2022-07-06T11:11:52;96060.0;;;27.5;31.9
50166;BME280;36071;48.140;11.516;2022-07-06T11:16:59;96060.0;;;27.8;31.9
50166;BME280;36071;48.140;11.516;2022-07-06T11:21:54;96050.0;;;28.2;31.5
50166;BME280;36071;48.140;11.516;2022-07-06T11:26:53;96050.0;;;27.7;31.8
50166;BME280;36071;48.140;11.516;2022-07-06T11:31:53;96070.0;;;27.0;32.2
50166;BME280;36071;48.140;11.516;2022-07-06T11:36:54;96060.0;;;27.4;32.0
50166;BME280;36071;48.140;11.516;2022-07-06T11:41:53;96050.0;;;27.8;32.6
50166;BME280;36071;48.140;11.516;2022-07-06T11:46:53;96060.0;;;27.7;31.9
50166;BME280;36071;48.140;11.516;2022-07-06T11:51:52;96040.0;;;27.5;32.6
50166;BME280;36071;48.140;11.516;2022-07-06T11:56:53;96040.0;;;27.7;32.0
50166;BME280;36071;48.140;11.516;2022-07-06T12:02:00;96050.0;;;27.7;30.8
50166;BME280;36071;48.140;11.516;2022-07-06T12:06:53;96030.0;;;27.6;31.3
50166;BME280;36071;48.140;11.516;2022-07-06T12:11:53;96020.0;;;27.2;30.6
50166;BME280;36071;48.140;11.516;2022-07-06T12:16:52;96020.0;;;27.1;31.3
50166;BME280;36071;48.140;11.516;2022-07-06T12:21:53;96010.0;;;27.5;30.8
50166;BME280;36071;48.140;11.516;2022-07-06T12:26:53;96000.0;;;27.8;30.2
50166;BME280;36071;48.140;11.516;2022-07-06T12:31:54;96000.0;;;27.3;31.7
50166;BME280;36071;48.140;11.516;2022-07-06T12:36:53;96000.0;;;27.5;31.5
50166;BME280;36071;48.140;11.516;2022-07-06T12:41:53;95990.0;;;27.4;31.5
50166;BME280;36071;48.140;11.516;2022-07-06T12:47:01;96000.0;;;27.7;30.4
50166;BME280;36071;48.140;11.516;2022-07-06T12:51:54;96000.0;;;27.9;30.3
50166;BME280;36071;48.140;11.516;2022-07-06T12:56:57;96000.0;;;28.0;30.6
50166;BME280;36071;48.140;11.516;2022-07-06T13:06:54;96000.0;;;27.1;31.4
50166;BME280;36071;48.140;11.516;2022-07-06T13:11:52;96000.0;;;27.1;32.0
50166;BME280;36071;48.140;11.516;2022-07-06T13:16:53;96000.0;;;27.2;30.7
50166;BME280;36071;48.140;11.516;2022-07-06T13:21:53;95990.0;;;27.4;30.7
50166;BME280;36071;48.140;11.516;2022-07-06T13:26:53;95980.0;;;27.7;30.2
50166;BME280;36071;48.140;11.516;2022-07-06T13:31:53;95980.0;;;27.5;30.4
50166;BME280;36071;48.140;11.516;2022-07-06T13:36:52;95980.0;;;27.4;30.2
50166;BME280;36071;48.140;11.516;2022-07-06T13:41:53;95970.0;;;27.5;30.1
50166;BME280;36071;48.140;11.516;2022-07-06T13:46:53;95970.0;;;27.2;30.8
50166;BME280;36071;48.140;11.516;2022-07-06T13:51:53;95970.0;;;26.8;31.4
50166;BME280;36071;48.140;11.516;2022-07-06T13:56:53;95980.0;;;27.2;31.5
50166;BME280;36071;48.140;11.516;2022-07-06T14:01:53;95970.0;;;27.2;31.4
50166;BME280;36071;48.140;11.516;2022-07-06T14:06:53;95960.0;;;27.2;30.6
50166;BME280;36071;48.140;11.516;2022-07-06T14:11:53;95960.0;;;26.8;30.8
50166;BME280;36071;48.140;11.516;2022-07-06T14:16:53;95960.0;;;27.3;29.9
50166;BME280;36071;48.140;11.516;2022-07-06T14:21:53;95940.0;;;27.2;29.8
50166;BME280;36071;48.140;11.516;2022-07-06T14:26:53;95940.0;;;27.3;29.5
50166;BME280;36071;48.140;11.516;2022-07-06T14:31:53;95940.0;;;27.1;30.4
50166;BME280;36071;48.140;11.516;2022-07-06T14:36:53;95940.0;;;27.3;30.3
50166;BME280;36071;48.140;11.516;2022-07-06T14:41:54;95940.0;;;27.2;30.9
50166;BME280;36071;48.140;11.516;2022-07-06T14:46:53;95940.0;;;26.7;30.5
50166;BME280;36071;48.140;11.516;2022-07-06T14:51:53;95940.0;;;27.2;31.2
50166;BME280;36071;48.140;11.516;2022-07-06T14:56:53;95920.0;;;27.4;30.7
50166;BME280;36071;48.140;11.516;2022-07-06T15:01:53;95920.0;;;27.3;29.3
50166;BME280;36071;48.140;11.516;2022-07-06T15:06:53;95920.0;;;27.3;29.8
50166;BME280;36071;48.140;11.516;2022-07-06T15:11:53;95920.0;;;27.4;30.8
50166;BME280;36071;48.140;11.516;2022-07-06T15:16:53;95920.0;;;27.3;30.1
50166;BME280;36071;48.140;11.516;2022-07-06T15:21:53;95920.0;;;27.4;30.1
50166;BME280;36071;48.140;11.516;2022-07-06T15:26:53;95910.0;;;27.1;29.7
50166;BME280;36071;48.140;11.516;2022-07-06T15:31:53;95910.0;;;27.0;30.0
50166;BME280;36071;48.140;11.516;2022-07-06T15:36:53;95920.0;;;26.8;30.7
50166;BME280;36071;48.140;11.516;2022-07-06T15:41:53;95910.0;;;27.0;30.3
50166;BME280;36071;48.140;11.516;2022-07-06T15:46:53;95910.0;;;27.0;30.2
50166;BME280;36071;48.140;11.516;2022-07-06T15:51:53;95900.0;;;27.0;30.1
50166;BME280;36071;48.140;11.516;2022-07-06T15:56:53;95900.0;;;27.0;30.5
50166;BME280;36071;48.140;11.516;2022-07-06T16:01:53;95900.0;;;26.9;30.8
50166;BME280;36071;48.140;11.516;2022-07-06T16:06:53;95910.0;;;26.8;30.6
50166;BME280;36071;48.140;11.516;2022-07-06T16:11:53;95910.0;;;26.5;30.2
50166;BME280;36071;48.140;11.516;2022-07-06T16:16:53;95900.0;;;26.3;30.6
50166;BME280;36071;48.140;11.516;2022-07-06T16:21:53;95910.0;;;26.3;30.8
50166;BME280;36071;48.140;11.516;2022-07-06T16:26:53;95910.0;;;26.3;31.5
50166;BME280;36071;48.140;11.516;2022-07-06T16:31:53;95910.0;;;26.6;31.4
50166;BME280;36071;48.140;11.516;2022-07-06T16:36:53;95900.0;;;26.3;30.5
50166;BME280;36071;48.140;11.516;2022-07-06T16:41:53;95900.0;;;26.4;31.4
50166;BME280;36071;48.140;11.516;2022-07-06T16:46:53;95900.0;;;26.3;31.3
50166;BME280;36071;48.140;11.516;2022-07-06T16:51:53;95900.0;;;26.0;31.6
50166;BME280;36071;48.140;11.516;2022-07-06T16:56:53;95890.0;;;26.0;31.6
50166;BME280;36071;48.140;11.516;2022-07-06T17:01:53;95900.0;;;25.9;31.8
50166;BME280;36071;48.140;11.516;2022-07-06T17:06:53;95890.0;;;25.8;32.0
50166;BME280;36071;48.140;11.516;2022-07-06T17:11:53;95900.0;;;25.8;32.4
50166;BME280;36071;48.140;11.516;2022-07-06T17:16:53;95900.0;;;25.6;32.4
50166;BME280;36071;48.140;11.516;2022-07-06T17:21:53;95900.0;;;25.5;32.8
50166;BME280;36071;48.140;11.516;2022-07-06T17:26:53;95900.0;;;25.5;33.0
50166;BME280;36071;48.140;11.516;2022-07-06T17:31:53;95910.0;;;25.3;32.5
50166;BME280;36071;48.140;11.516;2022-07-06T17:36:53;95900.0;;;25.1;32.9
50166;BME280;36071;48.140;11.516;2022-07-06T17:41:53;95900.0;;;25.2;33.1
50166;BME280;36071;48.140;11.516;2022-07-06T17:46:53;95910.0;;;25.2;33.0
50166;BME280;36071;48.140;11.516;2022-07-06T17:51:53;95910.0;;;25.0;33.1
50166;BME280;36071;48.140;11.516;2022-07-06T17:56:53;95910.0;;;25.0;34.0
50166;BME280;36071;48.140;11.516;2022-07-06T18:01:53;95910.0;;;25.0;34.2
50166;BME280;36071;48.140;11.516;2022-07-06T18:06:53;95900.0;;;24.8;34.7
50166;BME280;36071;48.140;11.516;2022-07-06T18:11:53;95910.0;;;24.8;34.2
50166;BME280;36071;48.140;11.516;2022-07-06T18:16:53;95910.0;;;24.8;34.0
50166;BME280;36071;48.140;11.516;2022-07-06T18:21:53;95920.0;;;24.7;34.4
50166;BME280;36071;48.140;11.516;2022-07-06T18:26:53;95920.0;;;24.5;35.4
50166;BME280;36071;48.140;11.516;2022-07-06T18:31:53;95920.0;;;24.5;35.5
50166;BME280;36071;48.140;11.516;2022-07-06T18:36:53;95920.0;;;24.4;35.7
50166;BME280;36071;48.140;11.516;2022-07-06T18:41:53;95930.0;;;24.5;36.1
50166;BME280;36071;48.140;11.516;2022-07-06T18:46:53;95930.0;;;24.5;35.9
50166;BME280;36071;48.140;11.516;2022-07-06T18:51:54;95930.0;;;24.4;35.8
50166;BME280;36071;48.140;11.516;2022-07-06T18:56:53;95940.0;;;24.3;35.6
50166;BME280;36071;48.140;11.516;2022-07-06T19:01:53;95950.0;;;24.2;36.0
50166;BME280;36071;48.140;11.516;2022-07-06T19:06:53;95940.0;;;24.0;36.4
50166;BME280;36071;48.140;11.516;2022-07-06T19:11:53;95950.0;;;23.9;36.8
50166;BME280;36071;48.140;11.516;2022-07-06T19:16:53;95950.0;;;23.8;36.7
50166;BME280;36071;48.140;11.516;2022-07-06T19:21:53;95950.0;;;23.8;37.1
50166;BME280;36071;48.140;11.516;2022-07-06T19:26:53;95960.0;;;23.7;37.1
50166;BME280;36071;48.140;11.516;2022-07-06T19:31:53;95970.0;;;23.4;37.5
50166;BME280;36071;48.140;11.516;2022-07-06T19:36:53;95980.0;;;23.3;37.9
50166;BME280;36071;48.140;11.516;2022-07-06T19:41:53;95990.0;;;23.3;38.2
50166;BME280;36071;48.140;11.516;2022-07-06T19:46:53;95990.0;;;23.1;38.2
50166;BME280;36071;48.140;11.516;2022-07-06T19:51:53;96000.0;;;23.1;39.7
50166;BME280;36071;48.140;11.516;2022-07-06T19:56:53;96000.0;;;22.9;39.7
50166;BME280;36071;48.140;11.516;2022-07-06T20:01:53;96010.0;;;22.8;39.8
50166;BME280;36071;48.140;11.516;2022-07-06T20:06:53;96010.0;;;22.8;40.0
50166;BME280;36071;48.140;11.516;2022-07-06T20:11:53;96020.0;;;22.5;40.4
50166;BME280;36071;48.140;11.516;2022-07-06T20:16:53;96020.0;;;22.6;41.0
50166;BME280;36071;48.140;11.516;2022-07-06T20:21:53;96020.0;;;22.4;41.3
50166;BME280;36071;48.140;11.516;2022-07-06T20:26:53;96030.0;;;22.4;41.6
50166;BME280;36071;48.140;11.516;2022-07-06T20:31:53;96030.0;;;22.3;41.8
50166;BME280;36071;48.140;11.516;2022-07-06T20:36:53;96020.0;;;22.2;42.0
50166;BME280;36071;48.140;11.516;2022-07-06T20:41:53;96030.0;;;22.0;42.2
50166;BME280;36071;48.140;11.516;2022-07-06T20:46:53;96030.0;;;21.9;42.6
50166;BME280;36071;48.140;11.516;2022-07-06T20:51:53;96040.0;;;21.8;43.0
50166;BME280;36071;48.140;11.516;2022-07-06T20:56:53;96050.0;;;21.8;43.2
50166;BME280;36071;48.140;11.516;2022-07-06T21:01:53;96050.0;;;21.8;43.5
50166;BME280;36071;48.140;11.516;2022-07-06T21:06:53;96050.0;;;21.7;44.0
50166;BME280;36071;48.140;11.516;2022-07-06T21:11:53;96060.0;;;21.6;44.3
50166;BME280;36071;48.140;11.516;2022-07-06T21:16:53;96060.0;;;21.4;44.9
50166;BME280;36071;48.140;11.516;2022-07-06T21:21:53;96030.0;;;21.1;45.0
50166;BME280;36071;48.140;11.516;2022-07-06T21:26:53;96070.0;;;21.4;44.8
50166;BME280;36071;48.140;11.516;2022-07-06T21:31:53;96070.0;;;21.3;44.0
50166;BME280;36071;48.140;11.516;2022-07-06T21:36:53;96070.0;;;21.3;42.2
50166;BME280;36071;48.140;11.516;2022-07-06T21:41:53;96070.0;;;21.1;42.5
50166;BME280;36071;48.140;11.516;2022-07-06T21:46:53;96070.0;;;21.0;41.9
50166;BME280;36071;48.140;11.516;2022-07-06T21:51:53;96080.0;;;21.0;41.6
50166;BME280;36071;48.140;11.516;2022-07-06T21:56:53;96070.0;;;20.8;41.7
50166;BME280;36071;48.140;11.516;2022-07-06T22:01:53;96080.0;;;20.8;41.8
50166;BME280;36071;48.140;11.516;2022-07-06T22:06:53;96080.0;;;20.8;41.7
50166;BME280;36071;48.140;11.516;2022-07-06T22:11:53;96070.0;;;20.6;41.2
50166;BME280;36071;48.140;11.516;2022-07-06T22:16:53;96070.0;;;20.6;41.1
50166;BME280;36071;48.140;11.516;2022-07-06T22:21:53;96070.0;;;20.7;40.9
50166;BME280;36071;48.140;11.516;2022-07-06T22:26:53;96070.0;;;20.8;41.3
50166;BME280;36071;48.140;11.516;2022-07-06T22:31:53;96070.0;;;20.5;42.3
50166;BME280;36071;48.140;11.516;2022-07-06T22:36:53;96070.0;;;20.7;42.6
50166;BME280;36071;48.140;11.516;2022-07-06T22:41:53;96080.0;;;20.4;44.0
50166;BME280;36071;48.140;11.516;2022-07-06T22:46:53;96080.0;;;20.4;44.1
50166;BME280;36071;48.140;11.516;2022-07-06T22:51:53;96070.0;;;20.2;42.6
50166;BME280;36071;48.140;11.516;2022-07-06T22:56:53;96080.0;;;20.1;42.4
50166;BME280;36071;48.140;11.516;2022-07-06T23:01:53;96080.0;;;20.2;41.5
50166;BME280;36071;48.140;11.516;2022-07-06T23:06:53;96080.0;;;20.0;41.0
50166;BME280;36071;48.140;11.516;2022-07-06T23:11:53;96070.0;;;20.0;41.0
50166;BME280;36071;48.140;11.516;2022-07-06T23:16:53;96060.0;;;20.0;41.1
50166;BME280;36071;48.140;11.516;2022-07-06T23:21:53;96080.0;;;19.9;40.7
50166;BME280;36071;48.140;11.516;2022-07-06T23:26:53;96070.0;;;19.7;41.2
50166;BME280;36071;48.140;11.516;2022-07-06T23:31:53;96070.0;;;19.9;40.3
50166;BME280;36071;48.140;11.516;2022-07-06T23:36:53;96060.0;;;19.6;40.5
50166;BME280;36071;48.140;11.516;2022-07-06T23:41:53;96060.0;;;19.8;40.2
50166;BME280;36071;48.140;11.516;2022-07-06T23:46:53;96070.0;;;19.7;40.2
50166;BME280;36071;48.140;11.516;2022-07-06T23:51:53;96070.0;;;19.7;40.4
50166;BME280;36071;48.140;11.516;2022-07-06T23:56:53;96060.0;;;19.5;40.5
